KALN/ALN METAR and TAF weather

Enter ICAO airport designator
Station Type Date Time Source
KALN METAR 2020/07/10 17:50 UTC NOAA

KALN 101750Z 31011KT 10SM SKC 29/20 A3000


Station Type Date Time Source
KALN Decoded METAR 2020/07/10 17:50 UTC NOAA

Alton/St. Louis, St. Louis Regional Airport, IL, United States (KALN) 38-54N 090-03W
Jul 10, 2020 - 01:50 PM EDT / 2020.07.10 1750 UTC
Wind: from the NW (310 degrees) at 13 MPH (11 KT):0
Visibility: 10 mile(s):0
Sky conditions: clear
Temperature: 84 F (29 C)
Dew Point: 68 F (20 C)
Relative Humidity: 58%
Pressure (altimeter): 30 in. Hg (1015 hPa)
ob: KALN 101750Z 31011KT 10SM SKC 29/20 A3000
cycle: 18

Station Type Date Time Source
KALN TAF UTC NOAA

Error!

Example: see airport list